Hillemann, Arkansas
Current Conditions -  °F | °C
As of 7:56 AM on Friday 24 Oct 2014 (Local Time) from KM19 Reporting Station
Broken Clouds Broken Clouds  
Wind Chill: 45°   Ceiling: 4500
Heat Index: 45°   Visibility: 7mi
Dew Point: 45°   Wind: 0mph
Humidity: 100%   Direction: NA
Pressure: 30.17"   Gusts: NA
Location:  35.2139°N, 91.1509°W
Report Text: KM19 241256Z AUTO 00000KT 7SM SCT002 BKN045 07/07 A3017 RMK AO2 T00720072 BKN V SCT SLP215
Loading
Personal Weather Stations






























Interactive Weather Map
Tropical Storm Tracking
New forecast layout! Learn more

10-Day Weather Forecast

Advertisements
Track Severe Weather on mobile